sensor_id;sensor_type;location;lat;lon;timestamp;P1;durP1;ratioP1;P2;durP2;ratioP2
1140;SDS011;559;48.628;8.924;2023-05-10T00:01:18;128.87;;;121.67;;
1140;SDS011;559;48.628;8.924;2023-05-10T00:03:44;120.43;;;113.30;;
1140;SDS011;559;48.628;8.924;2023-05-10T00:06:11;124.97;;;117.68;;
1140;SDS011;559;48.628;8.924;2023-05-10T00:08:37;127.77;;;120.37;;
1140;SDS011;559;48.628;8.924;2023-05-10T00:11:04;129.17;;;121.87;;
1140;SDS011;559;48.628;8.924;2023-05-10T00:13:30;119.50;;;112.50;;
1140;SDS011;559;48.628;8.924;2023-05-10T00:15:57;114.10;;;107.20;;
1140;SDS011;559;48.628;8.924;2023-05-10T00:18:25;118.50;;;111.60;;
1140;SDS011;559;48.628;8.924;2023-05-10T00:20:51;114.03;;;107.23;;
1140;SDS011;559;48.628;8.924;2023-05-10T00:23:18;107.90;;;101.40;;
1140;SDS011;559;48.628;8.924;2023-05-10T00:25:45;103.07;;;96.77;;
1140;SDS011;559;48.628;8.924;2023-05-10T00:28:11;100.03;;;93.73;;
1140;SDS011;559;48.628;8.924;2023-05-10T00:30:37;97.73;;;91.57;;
1140;SDS011;559;48.628;8.924;2023-05-10T00:33:04;103.80;;;97.60;;
1140;SDS011;559;48.628;8.924;2023-05-10T00:35:32;108.40;;;101.68;;
1140;SDS011;559;48.628;8.924;2023-05-10T00:37:58;104.25;;;98.00;;
1140;SDS011;559;48.628;8.924;2023-05-10T00:40:25;106.10;;;99.70;;
1140;SDS011;559;48.628;8.924;2023-05-10T00:42:52;101.82;;;95.63;;
1140;SDS011;559;48.628;8.924;2023-05-10T00:45:18;99.78;;;93.57;;
1140;SDS011;559;48.628;8.924;2023-05-10T00:47:45;102.10;;;95.90;;
1140;SDS011;559;48.628;8.924;2023-05-10T00:50:12;109.00;;;102.60;;
1140;SDS011;559;48.628;8.924;2023-05-10T00:52:40;101.33;;;95.23;;
1140;SDS011;559;48.628;8.924;2023-05-10T00:55:08;101.65;;;95.45;;
1140;SDS011;559;48.628;8.924;2023-05-10T00:57:35;112.43;;;106.03;;
1140;SDS011;559;48.628;8.924;2023-05-10T01:00:02;104.47;;;98.28;;
1140;SDS011;559;48.628;8.924;2023-05-10T01:02:29;93.13;;;87.32;;
1140;SDS011;559;48.628;8.924;2023-05-10T01:04:56;93.75;;;87.95;;
1140;SDS011;559;48.628;8.924;2023-05-10T01:07:22;93.47;;;87.68;;
1140;SDS011;559;48.628;8.924;2023-05-10T01:09:50;91.13;;;85.50;;
1140;SDS011;559;48.628;8.924;2023-05-10T01:12:17;93.85;;;87.82;;
1140;SDS011;559;48.628;8.924;2023-05-10T01:14:43;101.88;;;95.97;;
1140;SDS011;559;48.628;8.924;2023-05-10T01:17:10;89.32;;;83.40;;
1140;SDS011;559;48.628;8.924;2023-05-10T01:19:38;92.07;;;86.28;;
1140;SDS011;559;48.628;8.924;2023-05-10T01:22:07;94.43;;;88.63;;
1140;SDS011;559;48.628;8.924;2023-05-10T01:33:29;88.05;;;82.45;;
1140;SDS011;559;48.628;8.924;2023-05-10T01:35:58;94.80;;;89.00;;
1140;SDS011;559;48.628;8.924;2023-05-10T01:38:29;91.28;;;85.63;;
1140;SDS011;559;48.628;8.924;2023-05-10T01:41:02;92.57;;;86.88;;
1140;SDS011;559;48.628;8.924;2023-05-10T01:43:37;93.10;;;87.30;;
1140;SDS011;559;48.628;8.924;2023-05-10T01:46:09;94.32;;;88.53;;
1140;SDS011;559;48.628;8.924;2023-05-10T01:48:41;90.60;;;84.90;;
1140;SDS011;559;48.628;8.924;2023-05-10T01:51:12;92.80;;;87.00;;
1140;SDS011;559;48.628;8.924;2023-05-10T01:53:39;96.78;;;90.97;;
1140;SDS011;559;48.628;8.924;2023-05-10T01:56:06;99.90;;;93.95;;
1140;SDS011;559;48.628;8.924;2023-05-10T01:58:33;99.43;;;93.32;;
1140;SDS011;559;48.628;8.924;2023-05-10T02:01:03;99.97;;;93.97;;
1140;SDS011;559;48.628;8.924;2023-05-10T02:03:29;95.00;;;89.10;;
1140;SDS011;559;48.628;8.924;2023-05-10T02:05:59;96.07;;;90.05;;
1140;SDS011;559;48.628;8.924;2023-05-10T02:08:26;97.05;;;91.05;;
1140;SDS011;559;48.628;8.924;2023-05-10T02:10:54;97.57;;;91.68;;
1140;SDS011;559;48.628;8.924;2023-05-10T02:13:22;98.88;;;92.88;;
1140;SDS011;559;48.628;8.924;2023-05-10T02:15:49;96.68;;;90.82;;
1140;SDS011;559;48.628;8.924;2023-05-10T02:18:17;101.97;;;95.97;;
1140;SDS011;559;48.628;8.924;2023-05-10T02:20:44;102.40;;;96.30;;
1140;SDS011;559;48.628;8.924;2023-05-10T02:23:13;100.47;;;94.28;;
1140;SDS011;559;48.628;8.924;2023-05-10T02:25:40;107.82;;;101.40;;
1140;SDS011;559;48.628;8.924;2023-05-10T02:28:07;101.10;;;95.00;;
1140;SDS011;559;48.628;8.924;2023-05-10T02:30:34;98.50;;;92.50;;
1140;SDS011;559;48.628;8.924;2023-05-10T02:33:01;102.07;;;95.70;;
1140;SDS011;559;48.628;8.924;2023-05-10T02:35:28;100.88;;;94.78;;
1140;SDS011;559;48.628;8.924;2023-05-10T02:37:54;99.65;;;93.65;;
1140;SDS011;559;48.628;8.924;2023-05-10T02:40:24;95.30;;;89.40;;
1140;SDS011;559;48.628;8.924;2023-05-10T02:42:52;100.25;;;94.25;;
1140;SDS011;559;48.628;8.924;2023-05-10T02:45:22;93.32;;;87.40;;
1140;SDS011;559;48.628;8.924;2023-05-10T02:47:51;88.95;;;83.25;;
1140;SDS011;559;48.628;8.924;2023-05-10T02:50:18;90.45;;;84.75;;
1140;SDS011;559;48.628;8.924;2023-05-10T02:52:46;95.30;;;89.40;;
1140;SDS011;559;48.628;8.924;2023-05-10T02:55:15;98.90;;;92.88;;
1140;SDS011;559;48.628;8.924;2023-05-10T02:57:46;101.85;;;95.82;;
1140;SDS011;559;48.628;8.924;2023-05-10T03:00:15;103.88;;;97.78;;
1140;SDS011;559;48.628;8.924;2023-05-10T03:02:41;103.20;;;97.10;;
1140;SDS011;559;48.628;8.924;2023-05-10T03:05:08;99.25;;;93.10;;
1140;SDS011;559;48.628;8.924;2023-05-10T03:07:34;96.35;;;90.25;;
1140;SDS011;559;48.628;8.924;2023-05-10T03:10:01;101.00;;;94.80;;
1140;SDS011;559;48.628;8.924;2023-05-10T03:12:31;99.45;;;93.25;;
1140;SDS011;559;48.628;8.924;2023-05-10T03:15:07;100.30;;;94.10;;
1140;SDS011;559;48.628;8.924;2023-05-10T03:17:40;99.43;;;93.13;;
1140;SDS011;559;48.628;8.924;2023-05-10T03:20:15;106.22;;;99.88;;
1140;SDS011;559;48.628;8.924;2023-05-10T03:22:47;103.93;;;97.63;;
1140;SDS011;559;48.628;8.924;2023-05-10T03:25:14;108.28;;;101.88;;
1140;SDS011;559;48.628;8.924;2023-05-10T03:27:42;104.45;;;98.03;;
1140;SDS011;559;48.628;8.924;2023-05-10T03:30:12;105.40;;;98.90;;
1140;SDS011;559;48.628;8.924;2023-05-10T03:32:39;110.45;;;103.95;;
1140;SDS011;559;48.628;8.924;2023-05-10T03:35:06;110.75;;;103.95;;
1140;SDS011;559;48.628;8.924;2023-05-10T03:37:33;110.93;;;104.20;;
1140;SDS011;559;48.628;8.924;2023-05-10T03:39:59;112.85;;;106.20;;
1140;SDS011;559;48.628;8.924;2023-05-10T03:42:26;111.70;;;105.10;;
1140;SDS011;559;48.628;8.924;2023-05-10T03:44:52;118.15;;;110.00;;
1140;SDS011;559;48.628;8.924;2023-05-10T03:47:20;119.35;;;112.15;;
1140;SDS011;559;48.628;8.924;2023-05-10T03:49:47;117.78;;;110.68;;
1140;SDS011;559;48.628;8.924;2023-05-10T03:52:13;120.22;;;113.13;;
1140;SDS011;559;48.628;8.924;2023-05-10T03:54:40;117.10;;;110.10;;
1140;SDS011;559;48.628;8.924;2023-05-10T03:57:06;119.72;;;112.63;;
1140;SDS011;559;48.628;8.924;2023-05-10T03:59:33;122.10;;;114.90;;
1140;SDS011;559;48.628;8.924;2023-05-10T04:01:59;121.93;;;114.82;;
1140;SDS011;559;48.628;8.924;2023-05-10T04:04:27;133.25;;;125.75;;
1140;SDS011;559;48.628;8.924;2023-05-10T04:06:54;128.30;;;121.03;;
1140;SDS011;559;48.628;8.924;2023-05-10T04:09:20;128.95;;;121.65;;
1140;SDS011;559;48.628;8.924;2023-05-10T04:11:47;135.23;;;127.82;;
1140;SDS011;559;48.628;8.924;2023-05-10T04:14:13;128.43;;;121.18;;
1140;SDS011;559;48.628;8.924;2023-05-10T04:16:40;137.13;;;129.52;;
1140;SDS011;559;48.628;8.924;2023-05-10T04:19:06;137.82;;;130.18;;
1140;SDS011;559;48.628;8.924;2023-05-10T04:21:34;132.90;;;125.50;;
1140;SDS011;559;48.628;8.924;2023-05-10T04:24:01;130.52;;;123.13;;
1140;SDS011;559;48.628;8.924;2023-05-10T04:26:27;129.88;;;122.50;;
1140;SDS011;559;48.628;8.924;2023-05-10T04:28:54;132.25;;;124.80;;
1140;SDS011;559;48.628;8.924;2023-05-10T04:31:20;125.50;;;118.40;;
1140;SDS011;559;48.628;8.924;2023-05-10T04:33:47;124.20;;;117.10;;
1140;SDS011;559;48.628;8.924;2023-05-10T04:36:13;124.88;;;117.78;;
1140;SDS011;559;48.628;8.924;2023-05-10T04:38:41;121.90;;;114.80;;
1140;SDS011;559;48.628;8.924;2023-05-10T04:41:09;123.82;;;116.72;;
1140;SDS011;559;48.628;8.924;2023-05-10T04:43:36;126.13;;;119.03;;
1140;SDS011;559;48.628;8.924;2023-05-10T04:46:03;123.95;;;116.85;;
1140;SDS011;559;48.628;8.924;2023-05-10T04:48:30;116.65;;;109.93;;
1140;SDS011;559;48.628;8.924;2023-05-10T04:50:56;117.43;;;110.38;;
1140;SDS011;559;48.628;8.924;2023-05-10T04:53:23;117.05;;;110.20;;
1140;SDS011;559;48.628;8.924;2023-05-10T04:55:51;118.22;;;111.47;;
1140;SDS011;559;48.628;8.924;2023-05-10T04:58:17;112.05;;;105.35;;
1140;SDS011;559;48.628;8.924;2023-05-10T05:00:44;115.40;;;108.60;;
1140;SDS011;559;48.628;8.924;2023-05-10T05:03:10;121.13;;;114.18;;
1140;SDS011;559;48.628;8.924;2023-05-10T05:05:37;118.03;;;111.03;;
1140;SDS011;559;48.628;8.924;2023-05-10T05:08:03;125.85;;;118.75;;
1140;SDS011;559;48.628;8.924;2023-05-10T05:10:30;116.55;;;109.75;;
1140;SDS011;559;48.628;8.924;2023-05-10T05:12:57;118.32;;;111.40;;
1140;SDS011;559;48.628;8.924;2023-05-10T05:15:24;118.18;;;111.30;;
1140;SDS011;559;48.628;8.924;2023-05-10T05:17:50;121.45;;;114.55;;
1140;SDS011;559;48.628;8.924;2023-05-10T05:20:17;122.70;;;115.70;;
1140;SDS011;559;48.628;8.924;2023-05-10T05:22:44;115.18;;;108.47;;
1140;SDS011;559;48.628;8.924;2023-05-10T05:25:11;119.47;;;112.60;;
1140;SDS011;559;48.628;8.924;2023-05-10T05:27:37;109.97;;;103.38;;
1140;SDS011;559;48.628;8.924;2023-05-10T05:30:06;110.88;;;104.38;;
1140;SDS011;559;48.628;8.924;2023-05-10T05:32:33;112.53;;;106.03;;
1140;SDS011;559;48.628;8.924;2023-05-10T05:35:00;109.20;;;102.68;;
1140;SDS011;559;48.628;8.924;2023-05-10T05:37:27;113.55;;;106.95;;
1140;SDS011;559;48.628;8.924;2023-05-10T05:39:53;113.13;;;106.47;;
1140;SDS011;559;48.628;8.924;2023-05-10T05:42:20;120.05;;;113.25;;
1140;SDS011;559;48.628;8.924;2023-05-10T05:44:47;111.97;;;105.28;;
1140;SDS011;559;48.628;8.924;2023-05-10T05:47:14;113.15;;;106.45;;
1140;SDS011;559;48.628;8.924;2023-05-10T05:49:41;123.55;;;116.65;;
1140;SDS011;559;48.628;8.924;2023-05-10T05:52:10;129.25;;;122.25;;
1140;SDS011;559;48.628;8.924;2023-05-10T05:54:37;120.68;;;113.93;;
1140;SDS011;559;48.628;8.924;2023-05-10T05:57:03;110.50;;;104.00;;
1140;SDS011;559;48.628;8.924;2023-05-10T05:59:30;114.07;;;107.57;;
1140;SDS011;559;48.628;8.924;2023-05-10T06:01:56;111.25;;;104.85;;
1140;SDS011;559;48.628;8.924;2023-05-10T06:04:25;105.72;;;99.53;;
1140;SDS011;559;48.628;8.924;2023-05-10T06:06:51;110.13;;;103.72;;
1140;SDS011;559;48.628;8.924;2023-05-10T06:09:18;107.25;;;100.95;;
1140;SDS011;559;48.628;8.924;2023-05-10T06:11:44;105.70;;;99.40;;
1140;SDS011;559;48.628;8.924;2023-05-10T06:14:11;109.28;;;102.95;;
1140;SDS011;559;48.628;8.924;2023-05-10T06:16:38;109.82;;;103.18;;
1140;SDS011;559;48.628;8.924;2023-05-10T06:19:04;108.38;;;102.07;;
1140;SDS011;559;48.628;8.924;2023-05-10T06:21:32;107.35;;;101.15;;
1140;SDS011;559;48.628;8.924;2023-05-10T06:23:58;98.57;;;92.38;;
1140;SDS011;559;48.628;8.924;2023-05-10T06:26:25;95.65;;;89.85;;
1140;SDS011;559;48.628;8.924;2023-05-10T06:28:52;92.07;;;86.38;;
1140;SDS011;559;48.628;8.924;2023-05-10T06:31:18;85.60;;;80.20;;
1140;SDS011;559;48.628;8.924;2023-05-10T06:33:45;89.03;;;83.53;;
1140;SDS011;559;48.628;8.924;2023-05-10T06:36:11;88.30;;;82.80;;
1140;SDS011;559;48.628;8.924;2023-05-10T06:38:39;88.35;;;82.65;;
1140;SDS011;559;48.628;8.924;2023-05-10T06:41:06;83.03;;;77.63;;
1140;SDS011;559;48.628;8.924;2023-05-10T06:43:33;84.90;;;79.70;;
1140;SDS011;559;48.628;8.924;2023-05-10T06:45:59;88.13;;;82.72;;
1140;SDS011;559;48.628;8.924;2023-05-10T06:48:26;82.70;;;77.40;;
1140;SDS011;559;48.628;8.924;2023-05-10T06:50:53;88.27;;;82.77;;
1140;SDS011;559;48.628;8.924;2023-05-10T06:53:19;86.23;;;80.83;;
1140;SDS011;559;48.628;8.924;2023-05-10T06:55:47;84.80;;;79.40;;
1140;SDS011;559;48.628;8.924;2023-05-10T06:58:15;87.70;;;82.20;;
1140;SDS011;559;48.628;8.924;2023-05-10T07:00:41;81.60;;;76.40;;
1140;SDS011;559;48.628;8.924;2023-05-10T07:03:08;86.40;;;81.10;;
1140;SDS011;559;48.628;8.924;2023-05-10T07:05:35;84.30;;;79.07;;
1140;SDS011;559;48.628;8.924;2023-05-10T07:08:02;82.32;;;77.22;;
1140;SDS011;559;48.628;8.924;2023-05-10T07:10:28;82.60;;;77.40;;
1140;SDS011;559;48.628;8.924;2023-05-10T07:12:56;84.67;;;79.27;;
1140;SDS011;559;48.628;8.924;2023-05-10T07:15:23;76.38;;;71.38;;
1140;SDS011;559;48.628;8.924;2023-05-10T07:17:49;78.57;;;73.63;;
1140;SDS011;559;48.628;8.924;2023-05-10T07:20:16;69.20;;;64.60;;
1140;SDS011;559;48.628;8.924;2023-05-10T07:22:43;69.80;;;65.20;;
1140;SDS011;559;48.628;8.924;2023-05-10T07:25:10;64.43;;;60.13;;
1140;SDS011;559;48.628;8.924;2023-05-10T07:27:36;63.53;;;59.33;;
1140;SDS011;559;48.628;8.924;2023-05-10T07:30:05;62.70;;;58.50;;
1140;SDS011;559;48.628;8.924;2023-05-10T07:32:32;58.70;;;54.70;;
1140;SDS011;559;48.628;8.924;2023-05-10T07:34:58;61.72;;;57.53;;
1140;SDS011;559;48.628;8.924;2023-05-10T07:37:25;58.55;;;54.55;;
1140;SDS011;559;48.628;8.924;2023-05-10T07:39:51;60.10;;;56.00;;
1140;SDS011;559;48.628;8.924;2023-05-10T07:42:18;58.10;;;54.20;;
1140;SDS011;559;48.628;8.924;2023-05-10T07:44:44;56.95;;;53.15;;
1140;SDS011;559;48.628;8.924;2023-05-10T07:47:12;58.60;;;54.80;;
1140;SDS011;559;48.628;8.924;2023-05-10T07:49:39;61.07;;;57.10;;
1140;SDS011;559;48.628;8.924;2023-05-10T07:52:05;57.90;;;54.10;;
1140;SDS011;559;48.628;8.924;2023-05-10T07:54:32;55.15;;;51.35;;
1140;SDS011;559;48.628;8.924;2023-05-10T07:56:59;54.70;;;50.90;;
1140;SDS011;559;48.628;8.924;2023-05-10T07:59:25;53.07;;;49.43;;
1140;SDS011;559;48.628;8.924;2023-05-10T08:01:52;49.87;;;46.47;;
1140;SDS011;559;48.628;8.924;2023-05-10T08:04:20;49.53;;;46.22;;
1140;SDS011;559;48.628;8.924;2023-05-10T08:06:47;48.40;;;45.20;;
1140;SDS011;559;48.628;8.924;2023-05-10T08:09:13;48.63;;;45.43;;
1140;SDS011;559;48.628;8.924;2023-05-10T08:11:40;46.90;;;43.70;;
1140;SDS011;559;48.628;8.924;2023-05-10T08:14:06;49.13;;;45.93;;
1140;SDS011;559;48.628;8.924;2023-05-10T08:16:33;45.47;;;42.37;;
1140;SDS011;559;48.628;8.924;2023-05-10T08:18:59;44.97;;;42.10;;
1140;SDS011;559;48.628;8.924;2023-05-10T08:21:27;46.53;;;43.43;;
1140;SDS011;559;48.628;8.924;2023-05-10T08:23:54;47.03;;;44.03;;
1140;SDS011;559;48.628;8.924;2023-05-10T08:26:20;47.37;;;44.43;;
1140;SDS011;559;48.628;8.924;2023-05-10T08:28:47;44.67;;;41.90;;
1140;SDS011;559;48.628;8.924;2023-05-10T08:31:14;41.83;;;39.33;;
1140;SDS011;559;48.628;8.924;2023-05-10T08:33:41;42.77;;;40.30;;
1140;SDS011;559;48.628;8.924;2023-05-10T08:36:07;41.83;;;39.53;;
1140;SDS011;559;48.628;8.924;2023-05-10T08:38:36;40.93;;;38.63;;
1140;SDS011;559;48.628;8.924;2023-05-10T08:41:03;43.77;;;41.27;;
1140;SDS011;559;48.628;8.924;2023-05-10T08:43:31;41.17;;;38.87;;
1140;SDS011;559;48.628;8.924;2023-05-10T08:45:59;41.80;;;39.40;;
1140;SDS011;559;48.628;8.924;2023-05-10T08:48:26;42.00;;;39.60;;
1140;SDS011;559;48.628;8.924;2023-05-10T08:50:55;41.43;;;39.03;;
1140;SDS011;559;48.628;8.924;2023-05-10T08:53:24;41.50;;;39.20;;
1140;SDS011;559;48.628;8.924;2023-05-10T08:55:53;41.67;;;39.37;;
1140;SDS011;559;48.628;8.924;2023-05-10T08:58:20;41.53;;;39.23;;
1140;SDS011;559;48.628;8.924;2023-05-10T09:00:48;40.27;;;38.07;;
1140;SDS011;559;48.628;8.924;2023-05-10T09:03:15;40.27;;;37.97;;
1140;SDS011;559;48.628;8.924;2023-05-10T09:05:42;39.20;;;37.13;;
1140;SDS011;559;48.628;8.924;2023-05-10T09:08:09;38.60;;;36.60;;
1140;SDS011;559;48.628;8.924;2023-05-10T09:10:37;37.47;;;35.67;;
1140;SDS011;559;48.628;8.924;2023-05-10T09:13:06;37.00;;;35.30;;
1140;SDS011;559;48.628;8.924;2023-05-10T09:15:33;37.57;;;35.77;;
1140;SDS011;559;48.628;8.924;2023-05-10T09:18:00;38.47;;;36.57;;
1140;SDS011;559;48.628;8.924;2023-05-10T09:20:27;37.40;;;35.60;;
1140;SDS011;559;48.628;8.924;2023-05-10T09:22:54;37.03;;;35.33;;
1140;SDS011;559;48.628;8.924;2023-05-10T09:25:21;36.97;;;35.30;;
1140;SDS011;559;48.628;8.924;2023-05-10T09:27:47;36.43;;;34.83;;
1140;SDS011;559;48.628;8.924;2023-05-10T09:30:16;36.47;;;34.87;;
1140;SDS011;559;48.628;8.924;2023-05-10T09:32:44;36.27;;;34.67;;
1140;SDS011;559;48.628;8.924;2023-05-10T09:35:13;36.17;;;34.57;;
1140;SDS011;559;48.628;8.924;2023-05-10T09:37:40;34.63;;;33.23;;
1140;SDS011;559;48.628;8.924;2023-05-10T09:40:08;34.40;;;33.10;;
1140;SDS011;559;48.628;8.924;2023-05-10T09:42:37;35.87;;;34.37;;
1140;SDS011;559;48.628;8.924;2023-05-10T09:45:04;35.23;;;33.83;;
1140;SDS011;559;48.628;8.924;2023-05-10T09:47:33;34.40;;;33.10;;
1140;SDS011;559;48.628;8.924;2023-05-10T09:50:00;33.80;;;32.60;;
1140;SDS011;559;48.628;8.924;2023-05-10T09:52:29;33.70;;;32.40;;
1140;SDS011;559;48.628;8.924;2023-05-10T09:54:56;33.80;;;32.50;;
1140;SDS011;559;48.628;8.924;2023-05-10T09:57:23;32.97;;;31.87;;
1140;SDS011;559;48.628;8.924;2023-05-10T09:59:50;33.33;;;32.13;;
1140;SDS011;559;48.628;8.924;2023-05-10T10:02:19;33.17;;;32.07;;
1140;SDS011;559;48.628;8.924;2023-05-10T10:04:47;32.00;;;31.00;;
1140;SDS011;559;48.628;8.924;2023-05-10T10:07:15;31.67;;;30.60;;
1140;SDS011;559;48.628;8.924;2023-05-10T10:09:48;33.13;;;31.93;;
1140;SDS011;559;48.628;8.924;2023-05-10T10:12:15;31.47;;;30.40;;
1140;SDS011;559;48.628;8.924;2023-05-10T10:14:42;32.13;;;31.13;;
1140;SDS011;559;48.628;8.924;2023-05-10T10:17:08;34.10;;;32.90;;
1140;SDS011;559;48.628;8.924;2023-05-10T10:19:35;33.43;;;32.23;;
1140;SDS011;559;48.628;8.924;2023-05-10T10:22:03;33.63;;;32.53;;
1140;SDS011;559;48.628;8.924;2023-05-10T10:24:30;35.20;;;33.63;;
1140;SDS011;559;48.628;8.924;2023-05-10T10:26:59;33.23;;;32.23;;
1140;SDS011;559;48.628;8.924;2023-05-10T10:29:33;33.30;;;32.20;;
1140;SDS011;559;48.628;8.924;2023-05-10T10:32:07;33.60;;;32.40;;
1140;SDS011;559;48.628;8.924;2023-05-10T10:34:38;33.60;;;32.50;;
1140;SDS011;559;48.628;8.924;2023-05-10T10:37:06;36.88;;;35.38;;
1140;SDS011;559;48.628;8.924;2023-05-10T10:39:34;39.20;;;37.70;;
1140;SDS011;559;48.628;8.924;2023-05-10T11:23:14;49.90;;;47.60;;
1140;SDS011;559;48.628;8.924;2023-05-10T11:29:59;46.57;;;44.20;;
1140;SDS011;559;48.628;8.924;2023-05-10T12:05:23;56.30;;;54.47;;
1140;SDS011;559;48.628;8.924;2023-05-10T12:24:42;55.50;;;53.40;;
1140;SDS011;559;48.628;8.924;2023-05-10T12:27:33;56.08;;;54.08;;
1140;SDS011;559;48.628;8.924;2023-05-10T12:30:00;56.67;;;54.53;;
1140;SDS011;559;48.628;8.924;2023-05-10T12:32:36;56.87;;;54.87;;
1140;SDS011;559;48.628;8.924;2023-05-10T12:35:04;55.73;;;53.63;;
1140;SDS011;559;48.628;8.924;2023-05-10T12:37:30;58.30;;;56.20;;
1140;SDS011;559;48.628;8.924;2023-05-10T12:40:02;59.63;;;57.63;;
1140;SDS011;559;48.628;8.924;2023-05-10T12:42:30;59.83;;;57.83;;
1140;SDS011;559;48.628;8.924;2023-05-10T12:44:56;60.70;;;58.57;;
1140;SDS011;559;48.628;8.924;2023-05-10T12:47:23;59.97;;;58.13;;
1140;SDS011;559;48.628;8.924;2023-05-10T12:49:49;60.27;;;58.40;;
1140;SDS011;559;48.628;8.924;2023-05-10T12:52:17;55.07;;;53.40;;
1140;SDS011;559;48.628;8.924;2023-05-10T12:54:43;59.50;;;57.70;;
1140;SDS011;559;48.628;8.924;2023-05-10T12:57:11;59.90;;;58.20;;
1140;SDS011;559;48.628;8.924;2023-05-10T12:59:38;53.03;;;51.40;;
1140;SDS011;559;48.628;8.924;2023-05-10T13:02:05;54.17;;;52.57;;
1140;SDS011;559;48.628;8.924;2023-05-10T13:04:32;62.93;;;60.87;;
1140;SDS011;559;48.628;8.924;2023-05-10T13:06:59;57.75;;;55.95;;
1140;SDS011;559;48.628;8.924;2023-05-10T13:09:25;57.43;;;55.83;;
1140;SDS011;559;48.628;8.924;2023-05-10T13:11:54;52.13;;;50.63;;
1140;SDS011;559;48.628;8.924;2023-05-10T13:14:22;43.40;;;42.30;;
1140;SDS011;559;48.628;8.924;2023-05-10T13:16:48;44.53;;;43.30;;
1140;SDS011;559;48.628;8.924;2023-05-10T13:19:15;45.90;;;44.60;;
1140;SDS011;559;48.628;8.924;2023-05-10T13:21:42;44.00;;;42.83;;
1140;SDS011;559;48.628;8.924;2023-05-10T13:24:09;48.40;;;47.10;;
1140;SDS011;559;48.628;8.924;2023-05-10T13:26:36;50.30;;;48.90;;
1140;SDS011;559;48.628;8.924;2023-05-10T13:29:02;53.23;;;51.50;;
1140;SDS011;559;48.628;8.924;2023-05-10T13:31:30;55.07;;;53.43;;
1140;SDS011;559;48.628;8.924;2023-05-10T13:33:57;49.20;;;47.70;;
1140;SDS011;559;48.628;8.924;2023-05-10T13:36:23;52.87;;;51.33;;
1140;SDS011;559;48.628;8.924;2023-05-10T13:38:50;48.23;;;46.50;;
1140;SDS011;559;48.628;8.924;2023-05-10T13:41:16;44.17;;;42.80;;
1140;SDS011;559;48.628;8.924;2023-05-10T13:43:43;43.80;;;42.47;;
1140;SDS011;559;48.628;8.924;2023-05-10T13:46:09;46.13;;;44.83;;
1140;SDS011;559;48.628;8.924;2023-05-10T13:48:37;46.40;;;45.17;;
1140;SDS011;559;48.628;8.924;2023-05-10T13:51:04;50.90;;;49.50;;
1140;SDS011;559;48.628;8.924;2023-05-10T13:53:30;47.97;;;46.77;;
1140;SDS011;559;48.628;8.924;2023-05-10T13:55:57;48.97;;;47.40;;
1140;SDS011;559;48.628;8.924;2023-05-10T13:58:23;47.97;;;46.33;;
1140;SDS011;559;48.628;8.924;2023-05-10T14:00:50;48.13;;;46.90;;
1140;SDS011;559;48.628;8.924;2023-05-10T14:03:16;45.93;;;44.63;;
1140;SDS011;559;48.628;8.924;2023-05-10T14:05:44;37.37;;;36.37;;
1140;SDS011;559;48.628;8.924;2023-05-10T14:08:12;33.27;;;32.43;;
1140;SDS011;559;48.628;8.924;2023-05-10T14:10:39;44.20;;;40.90;;
1140;SDS011;559;48.628;8.924;2023-05-10T14:13:06;31.90;;;30.90;;
1140;SDS011;559;48.628;8.924;2023-05-10T14:15:32;34.40;;;33.30;;
1140;SDS011;559;48.628;8.924;2023-05-10T14:17:59;29.57;;;28.80;;
1140;SDS011;559;48.628;8.924;2023-05-10T14:20:25;28.33;;;27.33;;
1140;SDS011;559;48.628;8.924;2023-05-10T14:22:53;27.30;;;26.40;;
1140;SDS011;559;48.628;8.924;2023-05-10T14:25:20;29.07;;;28.30;;
1140;SDS011;559;48.628;8.924;2023-05-10T14:27:47;24.90;;;24.20;;
1140;SDS011;559;48.628;8.924;2023-05-10T14:30:13;24.73;;;24.03;;
1140;SDS011;559;48.628;8.924;2023-05-10T14:32:40;26.10;;;25.30;;
1140;SDS011;559;48.628;8.924;2023-05-10T14:35:07;23.50;;;22.80;;
1140;SDS011;559;48.628;8.924;2023-05-10T14:37:34;21.33;;;20.63;;
1140;SDS011;559;48.628;8.924;2023-05-10T14:40:02;22.70;;;21.93;;
1140;SDS011;559;48.628;8.924;2023-05-10T14:42:29;19.27;;;18.67;;
1140;SDS011;559;48.628;8.924;2023-05-10T14:44:56;23.57;;;22.93;;
1140;SDS011;559;48.628;8.924;2023-05-10T14:47:22;23.43;;;22.83;;
1140;SDS011;559;48.628;8.924;2023-05-10T14:49:49;27.40;;;26.60;;
1140;SDS011;559;48.628;8.924;2023-05-10T14:52:16;28.27;;;27.57;;
1140;SDS011;559;48.628;8.924;2023-05-10T14:54:43;24.80;;;24.10;;
1140;SDS011;559;48.628;8.924;2023-05-10T14:57:10;23.10;;;22.40;;
1140;SDS011;559;48.628;8.924;2023-05-10T14:59:37;26.83;;;25.73;;
1140;SDS011;559;48.628;8.924;2023-05-10T15:02:04;21.13;;;20.53;;
1140;SDS011;559;48.628;8.924;2023-05-10T15:04:30;19.40;;;18.83;;
1140;SDS011;559;48.628;8.924;2023-05-10T15:06:57;17.40;;;17.00;;
1140;SDS011;559;48.628;8.924;2023-05-10T15:09:24;18.30;;;17.80;;
1140;SDS011;559;48.628;8.924;2023-05-10T15:11:52;23.23;;;22.63;;
1140;SDS011;559;48.628;8.924;2023-05-10T15:14:20;24.20;;;23.57;;
1140;SDS011;559;48.628;8.924;2023-05-10T15:16:46;22.60;;;22.00;;
1140;SDS011;559;48.628;8.924;2023-05-10T15:19:13;21.03;;;20.43;;
1140;SDS011;559;48.628;8.924;2023-05-10T15:21:40;18.10;;;17.63;;
1140;SDS011;559;48.628;8.924;2023-05-10T15:24:09;19.00;;;18.50;;
1140;SDS011;559;48.628;8.924;2023-05-10T15:26:35;15.97;;;15.57;;
1140;SDS011;559;48.628;8.924;2023-05-10T15:29:02;18.90;;;18.40;;
1140;SDS011;559;48.628;8.924;2023-05-10T15:31:29;18.87;;;18.47;;
1140;SDS011;559;48.628;8.924;2023-05-10T15:33:56;22.03;;;21.33;;
1140;SDS011;559;48.628;8.924;2023-05-10T15:36:23;23.93;;;23.33;;
1140;SDS011;559;48.628;8.924;2023-05-10T15:38:50;27.20;;;26.50;;
1140;SDS011;559;48.628;8.924;2023-05-10T15:41:16;20.33;;;19.83;;
1140;SDS011;559;48.628;8.924;2023-05-10T15:43:43;19.80;;;19.30;;
1140;SDS011;559;48.628;8.924;2023-05-10T15:46:10;20.40;;;19.90;;
1140;SDS011;559;48.628;8.924;2023-05-10T15:48:38;22.90;;;22.40;;
1140;SDS011;559;48.628;8.924;2023-05-10T15:51:05;18.93;;;18.43;;
1140;SDS011;559;48.628;8.924;2023-05-10T15:53:31;21.13;;;20.63;;
1140;SDS011;559;48.628;8.924;2023-05-10T15:55:58;18.67;;;18.17;;
1140;SDS011;559;48.628;8.924;2023-05-10T15:58:24;16.93;;;16.43;;
1140;SDS011;559;48.628;8.924;2023-05-10T16:00:51;15.83;;;15.43;;
1140;SDS011;559;48.628;8.924;2023-05-10T16:03:17;17.77;;;17.27;;
1140;SDS011;559;48.628;8.924;2023-05-10T16:05:45;18.30;;;17.70;;
1140;SDS011;559;48.628;8.924;2023-05-10T16:08:12;20.43;;;19.93;;
1140;SDS011;559;48.628;8.924;2023-05-10T16:10:38;17.23;;;16.73;;
1140;SDS011;559;48.628;8.924;2023-05-10T16:13:05;17.10;;;16.60;;
1140;SDS011;559;48.628;8.924;2023-05-10T16:15:32;17.07;;;16.67;;
1140;SDS011;559;48.628;8.924;2023-05-10T16:17:58;19.50;;;18.93;;
1140;SDS011;559;48.628;8.924;2023-05-10T16:20:25;17.47;;;16.97;;
1140;SDS011;559;48.628;8.924;2023-05-10T16:22:53;29.37;;;28.43;;
1140;SDS011;559;48.628;8.924;2023-05-10T16:25:21;42.20;;;40.90;;
1140;SDS011;559;48.628;8.924;2023-05-10T16:27:47;52.50;;;50.70;;
1140;SDS011;559;48.628;8.924;2023-05-10T16:30:15;63.90;;;62.00;;
1140;SDS011;559;48.628;8.924;2023-05-10T16:32:41;71.00;;;68.90;;
1140;SDS011;559;48.628;8.924;2023-05-10T16:35:08;72.07;;;69.97;;
1140;SDS011;559;48.628;8.924;2023-05-10T16:37:34;72.83;;;70.73;;